createdAt,value
2019-02-10T00:00:51.483Z,5.93
2019-02-10T00:03:12.725Z,7.33
2019-02-10T00:05:33.931Z,8.07
2019-02-10T00:07:55.158Z,11.07
2019-02-10T00:10:16.374Z,7.10
2019-02-10T00:12:37.620Z,7.83
2019-02-10T00:14:58.847Z,9.37
2019-02-10T00:17:20.176Z,7.60
2019-02-10T00:19:41.371Z,9.07
2019-02-10T00:22:03.114Z,7.73
2019-02-10T00:24:24.399Z,7.67
2019-02-10T00:26:45.897Z,9.17
2019-02-10T00:29:07.117Z,9.30
2019-02-10T00:31:28.313Z,8.43
2019-02-10T00:33:49.554Z,6.47
2019-02-10T00:36:10.759Z,11.33
2019-02-10T00:38:31.980Z,7.80
2019-02-10T00:40:54.239Z,8.30
2019-02-10T00:43:15.561Z,8.57
2019-02-10T00:45:36.771Z,9.77
2019-02-10T00:47:57.991Z,10.23
2019-02-10T00:50:19.291Z,8.53
2019-02-10T00:52:40.509Z,9.53
2019-02-10T00:55:01.733Z,10.03
2019-02-10T00:57:22.962Z,7.13
2019-02-10T00:59:44.496Z,11.37
2019-02-10T01:02:06.327Z,11.27
2019-02-10T01:04:27.543Z,8.83
2019-02-10T01:06:48.748Z,8.83
2019-02-10T01:09:10.095Z,9.03
2019-02-10T01:11:31.306Z,10.23
2019-02-10T01:13:52.521Z,8.03
2019-02-10T01:16:13.758Z,11.10
2019-02-10T01:18:35.056Z,11.63
2019-02-10T01:20:56.272Z,9.80
2019-02-10T01:23:17.493Z,12.17
2019-02-10T01:25:38.710Z,11.00
2019-02-10T01:28:00.028Z,7.17
2019-02-10T01:30:21.351Z,10.00
2019-02-10T01:32:42.643Z,9.80
2019-02-10T01:35:03.983Z,6.83
2019-02-10T01:37:25.177Z,8.87
2019-02-10T01:39:46.398Z,12.23
2019-02-10T01:42:08.726Z,6.53
2019-02-10T01:44:29.949Z,6.43
2019-02-10T01:46:51.168Z,8.53
2019-02-10T01:49:12.381Z,7.37
2019-02-10T01:51:33.589Z,8.20
2019-02-10T01:53:54.829Z,8.23
2019-02-10T01:56:16.058Z,10.97
2019-02-10T01:58:37.286Z,6.63
2019-02-10T02:00:59.907Z,6.57
2019-02-10T02:03:21.115Z,6.40
2019-02-10T02:05:42.446Z,6.10
2019-02-10T02:08:03.831Z,8.27
2019-02-10T02:10:25.153Z,7.53
2019-02-10T02:12:46.441Z,9.30
2019-02-10T02:15:10.853Z,5.97
2019-02-10T02:17:32.077Z,7.83
2019-02-10T02:19:53.637Z,7.30
2019-02-10T02:22:14.876Z,5.90
2019-02-10T02:24:36.077Z,7.00
2019-02-10T02:26:57.406Z,8.33
2019-02-10T02:29:18.600Z,4.53
2019-02-10T02:31:39.900Z,7.20
2019-02-10T02:34:01.123Z,7.87
2019-02-10T02:36:22.334Z,8.00
2019-02-10T02:38:43.551Z,8.37
2019-02-10T02:41:04.891Z,6.10
2019-02-10T02:43:26.205Z,7.73
2019-02-10T02:45:47.434Z,6.67
2019-02-10T02:48:08.628Z,6.97
2019-02-10T02:50:29.859Z,4.83
2019-02-10T02:52:51.108Z,8.63
2019-02-10T02:55:12.470Z,5.07
2019-02-10T02:57:34.030Z,5.03
2019-02-10T02:59:55.255Z,5.70
2019-02-10T03:02:16.488Z,5.17
2019-02-10T03:04:38.006Z,5.53
2019-02-10T03:06:59.230Z,2.97
2019-02-10T03:09:20.443Z,3.70
2019-02-10T03:11:41.779Z,3.63
2019-02-10T03:14:04.975Z,2.37
2019-02-10T03:16:26.196Z,3.87
2019-02-10T03:18:52.978Z,4.83
2019-02-10T03:21:10.830Z,3.63
2019-02-10T03:23:32.020Z,6.10
2019-02-10T03:25:53.250Z,3.80
2019-02-10T03:28:14.453Z,3.40
2019-02-10T03:30:35.796Z,5.50
2019-02-10T03:32:57.111Z,4.83
2019-02-10T03:35:18.466Z,3.13
2019-02-10T03:37:39.810Z,3.47
2019-02-10T03:40:01.038Z,4.27
2019-02-10T03:42:22.746Z,3.70
2019-02-10T03:44:43.970Z,3.07
2019-02-10T03:47:05.234Z,4.27
2019-02-10T03:49:26.489Z,4.37
2019-02-10T03:51:47.736Z,4.47
2019-02-10T03:54:09.065Z,3.77
2019-02-10T03:56:30.457Z,4.97
2019-02-10T03:58:51.964Z,3.70
2019-02-10T04:01:13.186Z,2.63
2019-02-10T04:03:34.432Z,4.60
2019-02-10T04:05:55.622Z,5.13
2019-02-10T04:08:16.849Z,3.17
2019-02-10T04:10:38.050Z,4.47
2019-02-10T04:12:59.353Z,2.90
2019-02-10T04:15:20.554Z,3.43
2019-02-10T04:17:41.751Z,3.50
2019-02-10T04:20:05.070Z,3.93
2019-02-10T04:22:26.322Z,3.20
2019-02-10T04:24:47.542Z,6.47
2019-02-10T04:27:08.739Z,3.27
2019-02-10T04:29:29.944Z,4.77
2019-02-10T04:31:51.203Z,4.47
2019-02-10T04:34:12.530Z,4.17
2019-02-10T04:36:33.725Z,4.53
2019-02-10T04:38:55.037Z,3.73
2019-02-10T04:41:16.350Z,3.10
2019-02-10T04:43:37.582Z,5.07
2019-02-10T04:45:58.812Z,3.87
2019-02-10T04:48:20.121Z,5.30
2019-02-10T04:50:41.420Z,4.73
2019-02-10T04:53:02.623Z,3.13
2019-02-10T04:55:23.847Z,3.77
2019-02-10T04:57:45.169Z,3.70
2019-02-10T05:00:09.189Z,3.67
2019-02-10T05:02:30.409Z,2.63
2019-02-10T05:04:51.603Z,4.80
2019-02-10T05:07:12.849Z,3.17
2019-02-10T05:09:34.062Z,4.27
2019-02-10T05:11:55.273Z,3.03
2019-02-10T05:14:16.807Z,4.23
2019-02-10T05:16:38.067Z,3.00
2019-02-10T05:18:59.297Z,3.50
2019-02-10T05:21:20.589Z,3.77
2019-02-10T05:23:41.853Z,3.70
2019-02-10T05:26:03.062Z,3.07
2019-02-10T05:28:24.354Z,3.93
2019-02-10T05:30:45.853Z,4.80
2019-02-10T05:33:07.062Z,4.33
2019-02-10T05:35:28.277Z,3.70
2019-02-10T05:37:50.484Z,2.47
2019-02-10T05:40:11.893Z,4.13
2019-02-10T05:42:33.090Z,3.30
2019-02-10T05:44:54.340Z,3.73
2019-02-10T05:47:15.653Z,1.90
2019-02-10T05:49:36.871Z,2.80
2019-02-10T05:51:58.171Z,2.07
2019-02-10T05:54:19.370Z,3.03
2019-02-10T05:56:40.571Z,2.90
2019-02-10T05:59:01.763Z,2.27
2019-02-10T06:01:55.576Z,2.53
2019-02-10T06:04:16.791Z,2.10
2019-02-10T06:06:38.300Z,3.00
2019-02-10T06:08:59.730Z,2.17
2019-02-10T06:11:21.025Z,1.33
2019-02-10T06:13:42.368Z,1.13
2019-02-10T06:16:03.718Z,1.10
2019-02-10T06:18:24.963Z,1.77
2019-02-10T06:20:46.178Z,0.90
2019-02-10T06:23:07.487Z,1.20
2019-02-10T06:25:28.903Z,1.60
2019-02-10T06:27:50.359Z,1.30
2019-02-10T06:30:11.743Z,1.13
2019-02-10T06:32:33.021Z,1.33
2019-02-10T06:34:54.256Z,1.00
2019-02-10T06:37:15.458Z,1.23
2019-02-10T06:39:36.692Z,1.00
2019-02-10T06:41:57.911Z,0.90
2019-02-10T06:44:19.139Z,1.00
2019-02-10T06:46:40.377Z,1.17
2019-02-10T06:49:01.703Z,1.50
2019-02-10T06:51:23.114Z,1.40
2019-02-10T06:53:44.352Z,1.30
2019-02-10T06:56:05.706Z,2.10
2019-02-10T06:58:27.022Z,3.63
2019-02-10T07:00:50.136Z,1.23
2019-02-10T07:03:39.098Z,1.33
2019-02-10T07:06:00.308Z,1.37
2019-02-10T07:08:21.508Z,1.50
2019-02-10T07:10:42.717Z,1.77
2019-02-10T07:13:03.939Z,1.40
2019-02-10T07:16:03.004Z,1.63
2019-02-10T07:18:57.517Z,2.47
2019-02-10T07:21:20.589Z,1.43
2019-02-10T07:23:56.457Z,1.23
2019-02-10T07:26:17.653Z,1.30
2019-02-10T07:28:39.512Z,1.50
2019-02-10T07:31:01.713Z,1.80
2019-02-10T07:33:47.847Z,2.13
2019-02-10T07:36:33.621Z,2.03
2019-02-10T07:39:16.852Z,2.10
2019-02-10T07:41:56.960Z,1.67
2019-02-10T07:44:30.986Z,3.37
2019-02-10T07:47:23.851Z,2.73
2019-02-10T07:49:48.955Z,3.77
2019-02-10T07:52:26.100Z,2.13
2019-02-10T07:55:14.019Z,1.73
2019-02-10T07:57:59.074Z,1.93
2019-02-10T08:00:33.110Z,1.40
2019-02-10T08:03:13.013Z,1.60
2019-02-10T08:05:40.797Z,2.00
2019-02-10T08:08:08.849Z,1.27
2019-02-10T08:11:05.771Z,4.00
2019-02-10T08:13:30.774Z,2.50
2019-02-10T08:16:10.973Z,2.57
2019-02-10T08:18:45.104Z,3.13
2019-02-10T08:21:34.155Z,4.53
2019-02-10T08:24:01.868Z,7.10
2019-02-10T08:26:38.417Z,1.50
2019-02-10T08:29:06.513Z,1.57
2019-02-10T08:31:50.892Z,1.47
2019-02-10T08:34:31.030Z,1.77
2019-02-10T08:37:04.988Z,1.47
2019-02-10T08:39:30.019Z,3.80
2019-02-10T08:42:04.114Z,1.47
2019-02-10T08:44:35.414Z,1.73
2019-02-10T08:47:03.232Z,2.33
2019-02-10T08:49:47.730Z,2.60
2019-02-10T08:52:24.267Z,3.60
2019-02-10T08:54:45.461Z,4.17
2019-02-10T08:57:06.694Z,3.40
2019-02-10T08:59:27.886Z,2.50
2019-02-10T09:01:49.518Z,1.47
2019-02-10T09:04:10.725Z,1.87
2019-02-10T09:06:31.925Z,1.60
2019-02-10T09:08:53.140Z,1.60
2019-02-10T09:11:14.335Z,2.17
2019-02-10T09:13:35.545Z,1.50
2019-02-10T09:15:56.742Z,2.37
2019-02-10T09:18:17.956Z,2.97
2019-02-10T09:20:39.175Z,1.53
2019-02-10T09:23:00.389Z,2.17
2019-02-10T09:25:21.589Z,1.50
2019-02-10T09:27:42.867Z,1.50
2019-02-10T09:30:15.782Z,2.30
2019-02-10T09:32:37.005Z,2.57
2019-02-10T09:34:58.290Z,2.37
2019-02-10T09:37:21.301Z,2.40
2019-02-10T09:39:42.528Z,1.90
2019-02-10T09:42:03.746Z,2.43
2019-02-10T09:44:24.981Z,1.73
2019-02-10T09:46:46.179Z,1.70
2019-02-10T09:49:07.442Z,2.63
2019-02-10T09:51:28.642Z,2.73
2019-02-10T09:53:49.861Z,1.93
2019-02-10T09:56:11.076Z,1.80
2019-02-10T09:58:32.290Z,1.70
2019-02-10T10:00:53.502Z,3.30
2019-02-10T10:03:14.710Z,1.60
2019-02-10T10:05:35.925Z,1.93
2019-02-10T10:07:57.118Z,1.60
2019-02-10T10:10:18.513Z,2.20
2019-02-10T10:12:39.868Z,2.90
2019-02-10T10:15:01.078Z,1.93
2019-02-10T10:17:22.409Z,4.63
2019-02-10T10:19:43.621Z,2.30
2019-02-10T10:22:04.831Z,2.50
2019-02-10T10:24:26.332Z,2.90
2019-02-10T10:26:47.563Z,2.07
2019-02-10T10:29:08.774Z,1.83
2019-02-10T10:31:30.109Z,3.53
2019-02-10T10:33:52.499Z,2.67
2019-02-10T10:36:14.040Z,3.23
2019-02-10T10:38:35.326Z,2.20
2019-02-10T10:40:56.639Z,3.77
2019-02-10T10:46:11.439Z,2.83
2019-02-10T10:48:34.654Z,2.60
2019-02-10T10:54:04.738Z,2.70
2019-02-10T10:56:25.941Z,3.17
2019-02-10T10:58:47.153Z,3.43
2019-02-10T11:01:08.351Z,2.33
2019-02-10T11:03:29.568Z,2.63
2019-02-10T11:05:51.096Z,3.03
2019-02-10T11:08:12.329Z,2.53
2019-02-10T11:10:33.518Z,2.93
2019-02-10T11:12:54.726Z,3.20
2019-02-10T11:15:15.929Z,3.40
2019-02-10T11:17:37.133Z,2.67
2019-02-10T11:19:58.367Z,2.60
2019-02-10T11:22:19.579Z,3.80
2019-02-10T11:24:40.871Z,3.20
2019-02-10T11:27:02.070Z,6.93
2019-02-10T11:29:23.281Z,2.57
2019-02-10T11:31:44.477Z,2.17
2019-02-10T11:34:05.732Z,2.17
2019-02-10T11:36:26.953Z,2.60
2019-02-10T11:38:49.985Z,2.57
2019-02-10T11:41:11.193Z,4.93
2019-02-10T11:43:32.403Z,3.10
2019-02-10T11:45:53.606Z,2.43
2019-02-10T11:48:14.795Z,2.27
2019-02-10T11:50:36.006Z,2.20
2019-02-10T11:52:57.209Z,2.97
2019-02-10T11:55:18.430Z,2.37
2019-02-10T11:57:40.834Z,3.77
2019-02-10T12:00:12.955Z,3.73
2019-02-10T12:02:38.104Z,1.70
2019-02-10T12:04:57.237Z,2.83
2019-02-10T12:07:18.481Z,1.73
2019-02-10T12:09:39.665Z,2.37
2019-02-10T12:12:00.890Z,2.40
2019-02-10T12:14:22.114Z,1.67
2019-02-10T12:16:43.334Z,1.67
2019-02-10T12:19:04.551Z,2.57
2019-02-10T12:21:26.865Z,1.60
2019-02-10T12:23:48.045Z,2.77
2019-02-10T12:26:09.283Z,1.57
2019-02-10T12:28:30.681Z,1.83
2019-02-10T12:30:51.879Z,2.90
2019-02-10T12:33:13.095Z,1.93
2019-02-10T12:35:34.282Z,3.20
2019-02-10T12:37:55.501Z,2.20
2019-02-10T12:40:16.703Z,1.90
2019-02-10T12:42:38.515Z,4.93
2019-02-10T12:44:59.702Z,1.87
2019-02-10T12:47:20.913Z,2.20
2019-02-10T12:49:42.097Z,2.27
2019-02-10T12:52:03.307Z,2.03
2019-02-10T12:54:24.542Z,5.20
2019-02-10T12:56:45.989Z,2.50
2019-02-10T12:59:07.201Z,2.00
2019-02-10T13:01:28.394Z,2.50
2019-02-10T13:03:49.657Z,2.03
2019-02-10T13:06:11.160Z,1.83
2019-02-10T13:08:32.412Z,2.00
2019-02-10T13:10:53.753Z,2.47
2019-02-10T13:13:19.408Z,3.60
2019-02-10T13:15:38.110Z,2.00
2019-02-10T13:17:59.305Z,2.83
2019-02-10T13:20:20.515Z,1.50
2019-02-10T13:22:41.711Z,1.80
2019-02-10T13:25:05.520Z,1.70
2019-02-10T13:27:26.805Z,1.30
2019-02-10T13:29:48.286Z,1.93
2019-02-10T13:32:09.491Z,1.40
2019-02-10T13:34:30.742Z,2.27
2019-02-10T13:36:52.034Z,2.50
2019-02-10T13:39:13.270Z,1.30
2019-02-10T13:41:34.545Z,2.93
2019-02-10T13:43:55.746Z,1.50
2019-02-10T13:46:16.945Z,1.30
2019-02-10T13:48:38.145Z,1.73
2019-02-10T13:50:59.351Z,1.40
2019-02-10T13:53:20.547Z,1.23
2019-02-10T13:55:41.758Z,1.33
2019-02-10T13:58:02.953Z,2.30
2019-02-10T14:00:24.349Z,2.20
2019-02-10T14:02:47.499Z,1.30
2019-02-10T14:05:08.914Z,1.80
2019-02-10T14:07:30.138Z,1.53
2019-02-10T14:09:51.336Z,2.17
2019-02-10T14:12:12.934Z,1.50
2019-02-10T14:14:34.138Z,1.50
2019-02-10T14:16:55.362Z,2.33
2019-02-10T14:19:16.562Z,1.97
2019-02-10T14:21:37.753Z,2.03
2019-02-10T14:23:58.967Z,1.77
2019-02-10T14:26:21.349Z,2.13
2019-02-10T14:28:42.556Z,2.37
2019-02-10T14:31:03.853Z,3.43
2019-02-10T14:33:25.122Z,3.10
2019-02-10T14:35:46.314Z,2.00
2019-02-10T14:38:07.514Z,3.13
2019-02-10T14:40:33.649Z,3.20
2019-02-10T14:42:51.815Z,4.10
2019-02-10T14:45:14.126Z,2.27
2019-02-10T14:47:35.504Z,2.27
2019-02-10T14:49:56.753Z,1.43
2019-02-10T14:52:17.955Z,1.47
2019-02-10T14:54:39.142Z,1.33
2019-02-10T14:57:00.350Z,1.53
2019-02-10T14:59:21.546Z,1.90
2019-02-10T15:01:42.746Z,1.07
2019-02-10T15:04:03.946Z,3.10
2019-02-10T15:06:25.145Z,1.43
2019-02-10T15:08:46.353Z,3.07
2019-02-10T15:11:07.566Z,1.60
2019-02-10T15:13:28.763Z,3.13
2019-02-10T15:15:49.962Z,1.83
2019-02-10T15:18:11.166Z,1.30
2019-02-10T15:20:32.361Z,1.40
2019-02-10T15:22:53.569Z,1.73
2019-02-10T15:25:14.765Z,3.03
2019-02-10T15:27:41.577Z,1.10
2019-02-10T15:30:05.974Z,2.00
2019-02-10T15:32:27.477Z,2.53
2019-02-10T15:34:48.681Z,2.17
2019-02-10T15:37:09.873Z,2.40
2019-02-10T15:39:31.194Z,1.20
2019-02-10T15:41:52.386Z,3.17
2019-02-10T15:44:13.601Z,2.20
2019-02-10T15:46:34.800Z,1.17
2019-02-10T15:48:56.010Z,1.00
2019-02-10T15:51:17.206Z,1.00
2019-02-10T15:53:38.405Z,1.03
2019-02-10T15:55:59.589Z,0.70
2019-02-10T15:58:20.812Z,0.93
2019-02-10T16:00:42.322Z,1.70
2019-02-10T16:03:03.509Z,0.50
2019-02-10T16:05:24.717Z,2.43
2019-02-10T16:07:46.011Z,2.30
2019-02-10T16:10:09.449Z,0.93
2019-02-10T16:12:30.734Z,0.60
2019-02-10T16:14:52.002Z,0.87
2019-02-10T16:17:13.185Z,0.63
2019-02-10T16:19:34.705Z,0.77
2019-02-10T16:21:55.922Z,0.50
2019-02-10T16:24:17.153Z,1.03
2019-02-10T16:26:38.447Z,1.60
2019-02-10T16:28:59.662Z,0.70
2019-02-10T16:31:20.878Z,0.90
2019-02-10T16:33:42.069Z,0.47
2019-02-10T16:36:03.686Z,0.90
2019-02-10T16:38:24.910Z,1.70
2019-02-10T16:40:46.142Z,0.50
2019-02-10T16:43:07.370Z,1.43
2019-02-10T16:45:28.580Z,1.00
2019-02-10T16:47:49.907Z,1.33
2019-02-10T16:50:12.595Z,1.90
2019-02-10T16:52:33.841Z,0.70
2019-02-10T16:54:55.138Z,1.03
2019-02-10T16:57:16.377Z,2.20
2019-02-10T16:59:37.680Z,0.60
2019-02-10T17:01:58.957Z,0.87
2019-02-10T17:04:20.352Z,0.80
2019-02-10T17:06:41.586Z,1.03
2019-02-10T17:09:04.393Z,1.40
2019-02-10T17:11:26.809Z,2.13
2019-02-10T17:13:48.085Z,1.00
2019-02-10T17:16:09.301Z,0.70
2019-02-10T17:18:30.497Z,1.03
2019-02-10T17:20:51.691Z,1.50
2019-02-10T17:23:12.886Z,1.77
2019-02-10T17:25:34.478Z,0.80
2019-02-10T17:27:55.965Z,0.70
2019-02-10T17:30:17.364Z,0.70
2019-02-10T17:32:38.605Z,0.60
2019-02-10T17:34:59.810Z,0.37
2019-02-10T17:37:21.137Z,0.60
2019-02-10T17:39:43.935Z,1.47
2019-02-10T17:42:05.242Z,0.73
2019-02-10T17:44:29.843Z,0.37
2019-02-10T17:46:51.058Z,0.60
2019-02-10T17:49:12.805Z,0.87
2019-02-10T17:51:34.544Z,0.67
2019-02-10T17:53:56.543Z,2.23
2019-02-10T17:56:31.668Z,0.87
2019-02-10T17:58:52.949Z,1.63
2019-02-10T18:01:14.281Z,2.30
2019-02-10T18:03:35.763Z,0.93
2019-02-10T18:05:57.349Z,0.90
2019-02-10T18:08:18.866Z,1.33
2019-02-10T18:10:40.062Z,0.80
2019-02-10T18:13:01.281Z,0.87
2019-02-10T18:15:40.942Z,0.73
2019-02-10T18:18:06.825Z,2.00
2019-02-10T18:20:29.939Z,5.07
2019-02-10T18:22:56.016Z,2.27
2019-02-10T18:25:19.206Z,1.80
2019-02-10T18:27:48.158Z,2.00
2019-02-10T18:30:12.847Z,2.17
2019-02-10T18:32:44.514Z,2.67
2019-02-10T18:35:07.669Z,0.90
2019-02-10T18:37:30.834Z,2.03
2019-02-10T18:39:53.933Z,1.27
2019-02-10T18:42:33.593Z,1.30
2019-02-10T18:45:08.723Z,1.20
2019-02-10T18:47:43.950Z,1.10
2019-02-10T18:50:27.607Z,1.80
2019-02-10T18:52:59.301Z,1.67
2019-02-10T18:55:22.417Z,2.13
2019-02-10T18:57:48.742Z,2.03
2019-02-10T19:00:25.091Z,2.23
2019-02-10T19:02:48.178Z,2.37
2019-02-10T19:05:14.523Z,2.33
2019-02-10T19:07:54.253Z,2.37
2019-02-10T19:10:17.379Z,1.10
2019-02-10T19:12:43.307Z,1.27
2019-02-10T19:15:08.509Z,1.20
2019-02-10T19:17:37.804Z,3.20
2019-02-10T19:20:16.183Z,1.80
2019-02-10T19:22:48.229Z,1.13
2019-02-10T19:25:11.326Z,1.70
2019-02-10T19:27:43.247Z,1.70
2019-02-10T19:30:26.966Z,1.87
2019-02-10T19:32:50.086Z,1.40
2019-02-10T19:35:13.198Z,1.90
2019-02-10T19:37:39.551Z,7.43
2019-02-10T19:40:11.772Z,3.03
2019-02-10T19:42:41.238Z,3.53
2019-02-10T19:45:15.790Z,1.00
2019-02-10T19:47:54.426Z,1.30
2019-02-10T19:50:32.897Z,1.90
2019-02-10T19:52:56.150Z,2.07
2019-02-10T19:55:22.169Z,1.13
2019-02-10T19:58:02.176Z,2.00
2019-02-10T20:00:32.412Z,1.33
2019-02-10T20:03:10.784Z,1.50
2019-02-10T20:05:39.807Z,1.63
2019-02-10T20:08:19.761Z,1.83
2019-02-10T20:10:42.993Z,1.47
2019-02-10T20:13:06.216Z,13.10
2019-02-10T20:15:32.474Z,1.47
2019-02-10T20:17:55.604Z,2.13
2019-02-10T20:20:24.462Z,1.73
2019-02-10T20:22:47.581Z,1.47
2019-02-10T20:25:13.951Z,1.60
2019-02-10T20:27:37.122Z,1.30
2019-02-10T20:30:03.662Z,1.37
2019-02-10T20:32:31.156Z,1.00
2019-02-10T20:37:33.692Z,1.30
2019-02-10T20:39:56.791Z,0.60
2019-02-10T20:42:35.196Z,2.77
2019-02-10T20:45:07.697Z,0.80
2019-02-10T20:47:33.842Z,0.53
2019-02-10T20:50:09.329Z,0.40
2019-02-10T20:52:32.795Z,2.20
2019-02-10T20:55:01.663Z,21.07
2019-02-10T20:57:41.831Z,4.07
2019-02-10T21:03:00.058Z,1.70
2019-02-10T21:05:40.185Z,1.30
2019-02-10T21:08:06.113Z,3.90
2019-02-10T21:10:41.315Z,0.67
2019-02-10T21:13:07.363Z,0.53
2019-02-10T21:15:47.074Z,0.93
2019-02-10T21:18:22.126Z,1.00
2019-02-10T21:20:48.030Z,1.43
2019-02-10T21:23:11.153Z,0.80
2019-02-10T21:25:34.259Z,0.97
2019-02-10T21:27:57.554Z,0.97
2019-02-10T21:30:20.741Z,0.70
2019-02-10T21:32:50.019Z,2.03
2019-02-10T21:35:16.257Z,0.80
2019-02-10T21:37:42.571Z,0.60
2019-02-10T21:40:11.470Z,1.33
2019-02-10T21:42:39.050Z,0.83
2019-02-10T21:45:14.393Z,1.13
2019-02-10T21:47:37.530Z,0.60
2019-02-10T21:49:58.751Z,1.17
2019-02-10T21:52:19.950Z,0.93
2019-02-10T21:54:41.250Z,0.70
2019-02-10T21:57:02.450Z,1.00
2019-02-10T21:59:24.043Z,1.00
2019-02-10T22:01:45.378Z,1.57
2019-02-10T22:04:06.601Z,1.27
2019-02-10T22:06:27.814Z,2.13
2019-02-10T22:08:49.002Z,2.00
2019-02-10T22:11:10.217Z,0.70
2019-02-10T22:13:31.415Z,0.80
2019-02-10T22:15:52.622Z,1.43
2019-02-10T22:18:13.811Z,1.00
2019-02-10T22:20:35.013Z,1.73
2019-02-10T22:22:56.225Z,1.23
2019-02-10T22:25:30.696Z,1.10
2019-02-10T22:27:52.006Z,1.20
2019-02-10T22:30:14.751Z,1.30
2019-02-10T22:32:36.005Z,2.50
2019-02-10T22:34:57.203Z,1.73
2019-02-10T22:37:18.434Z,1.70
2019-02-10T22:39:39.636Z,1.37
2019-02-10T22:42:00.953Z,1.70
2019-02-10T22:44:42.036Z,1.73
2019-02-10T22:47:03.222Z,1.87
2019-02-10T22:49:24.433Z,1.30
2019-02-10T22:51:45.706Z,1.30
2019-02-10T22:54:06.923Z,1.70
2019-02-10T22:56:28.114Z,2.33
2019-02-10T22:58:50.334Z,1.30
2019-02-10T23:01:11.954Z,5.50
2019-02-10T23:03:33.157Z,2.00
2019-02-10T23:05:54.373Z,2.47
2019-02-10T23:08:15.594Z,2.17
2019-02-10T23:10:36.795Z,2.07
2019-02-10T23:12:58.325Z,1.20
2019-02-10T23:15:19.554Z,1.40
2019-02-10T23:17:41.741Z,2.43
2019-02-10T23:20:04.447Z,1.47
2019-02-10T23:22:25.719Z,1.33
2019-02-10T23:24:46.907Z,1.67
2019-02-10T23:27:08.113Z,2.77
2019-02-10T23:29:29.302Z,2.33
2019-02-10T23:31:50.530Z,0.93
2019-02-10T23:34:11.734Z,1.03
2019-02-10T23:36:32.962Z,1.77
2019-02-10T23:38:54.233Z,1.70
2019-02-10T23:41:15.437Z,1.90
2019-02-10T23:43:36.666Z,1.63
2019-02-10T23:45:57.858Z,1.40
2019-02-10T23:48:19.107Z,1.27
2019-02-10T23:50:40.295Z,1.87
2019-02-10T23:53:01.628Z,1.37
2019-02-10T23:55:22.830Z,2.10
2019-02-10T23:57:44.018Z,1.20
